Time;durP1;ratioP1;P1;durP2;ratioP2;P2;SDS_P1;SDS_P2;PMS_P1;PMS_P2;Temp;Humidity;BMP_temperature;BMP_pressure;BME280_temperature;BME280_humidity;BME280_pressure;Samples;Min_cycle;Max_cycle;Signal;HPM_P1;HPM_P2
2022/05/26 00:01:52;;;;;;;5.00;2.00;;;;;;;;;;4206016;34;20309;-65
2022/05/26 00:32:57;;;;;;;2.80;2.00;;;;;;;;;;4622390;28;20269;-66
2022/05/26 00:35:23;;;;;;;2.55;1.90;;;;;;;;;;4203435;34;20501;-67
2022/05/26 00:37:50;;;;;;;2.72;2.00;;;;;;;;;;4202603;34;20525;-68
2022/05/26 00:40:16;;;;;;;2.67;2.25;;;;;;;;;;4191785;34;20789;-68
2022/05/26 00:42:42;;;;;;;3.72;1.95;;;;;;;;;;4197852;34;20209;-75
2022/05/26 00:45:09;;;;;;;3.08;1.80;;;;;;;;;;4204064;34;20102;-75
2022/05/26 00:47:44;;;;;;;3.20;1.80;;;;;;;;;;4204256;34;20209;-75
2022/05/26 00:50:30;;;;;;;2.12;1.73;;;;;;;;;;4205184;34;20100;-74
2022/05/26 00:52:59;;;;;;;4.90;1.80;;;;;;;;;;4190270;34;20222;-74
2022/05/26 00:55:28;;;;;;;2.58;2.08;;;;;;;;;;4179167;34;20121;-67
2022/05/26 00:58:16;;;;;;;3.25;2.10;;;;;;;;;;4191840;34;20113;-67
2022/05/26 01:00:42;;;;;;;2.10;1.90;;;;;;;;;;4191877;34;20141;-67
2022/05/26 01:03:32;;;;;;;4.00;1.85;;;;;;;;;;4191616;34;20205;-67
2022/05/26 01:06:11;;;;;;;3.90;2.00;;;;;;;;;;4190425;34;20130;-66
2022/05/26 01:08:47;;;;;;;3.75;1.90;;;;;;;;;;4198214;34;20112;-67
2022/05/26 01:11:13;;;;;;;2.37;1.85;;;;;;;;;;4205481;34;20114;-68
2022/05/26 01:13:48;;;;;;;2.05;1.85;;;;;;;;;;4203727;34;20118;-66
2022/05/26 01:16:24;;;;;;;2.80;2.00;;;;;;;;;;4203894;34;20106;-67
2022/05/26 01:18:50;;;;;;;3.17;1.95;;;;;;;;;;4203964;34;20094;-67
2022/05/26 01:21:24;;;;;;;4.82;2.05;;;;;;;;;;4205517;34;20160;-67
2022/05/26 01:24:08;;;;;;;3.58;1.87;;;;;;;;;;4205251;34;20097;-67
2022/05/26 01:27:16;;;;;;;2.65;1.98;;;;;;;;;;4205487;34;20511;-67
2022/05/26 01:30:20;;;;;;;4.97;2.17;;;;;;;;;;4192167;34;20206;-68
2022/05/26 01:33:10;;;;;;;2.50;1.92;;;;;;;;;;4203510;34;20125;-68
2022/05/26 01:35:37;;;;;;;4.28;2.10;;;;;;;;;;4193757;34;20106;-68
2022/05/26 01:38:16;;;;;;;3.37;2.25;;;;;;;;;;4189947;34;20450;-67
2022/05/26 01:40:48;;;;;;;3.20;2.33;;;;;;;;;;4190177;34;20114;-67
2022/05/26 01:43:26;;;;;;;2.15;1.95;;;;;;;;;;4191138;34;20179;-75
2022/05/26 01:46:26;;;;;;;2.95;1.92;;;;;;;;;;4178534;34;20181;-74
2022/05/26 01:48:54;;;;;;;2.95;2.33;;;;;;;;;;4172023;34;20126;-74
2022/05/26 01:51:28;;;;;;;2.00;1.80;;;;;;;;;;4190071;34;20098;-75
2022/05/26 01:54:09;;;;;;;4.75;2.10;;;;;;;;;;4178277;34;20447;-75
2022/05/26 01:57:01;;;;;;;6.18;1.90;;;;;;;;;;4191522;34;20098;-76
2022/05/26 01:59:49;;;;;;;2.47;1.90;;;;;;;;;;4190971;34;20114;-75
2022/05/26 02:02:19;;;;;;;3.42;2.20;;;;;;;;;;4190088;34;20186;-75
2022/05/26 02:04:50;;;;;;;8.30;4.28;;;;;;;;;;4177618;34;20097;-76
2022/05/26 02:07:26;;;;;;;4.70;2.30;;;;;;;;;;4189504;34;20542;-76
2022/05/26 02:09:54;;;;;;;5.57;2.30;;;;;;;;;;4201669;34;20466;-76
2022/05/26 02:12:26;;;;;;;2.20;2.00;;;;;;;;;;4192156;34;20496;-75
2022/05/26 02:15:04;;;;;;;2.75;2.40;;;;;;;;;;4192065;34;20212;-75
2022/05/26 02:17:32;;;;;;;6.22;2.90;;;;;;;;;;4203636;34;20152;-75
2022/05/26 02:20:09;;;;;;;4.05;2.28;;;;;;;;;;4203564;34;20094;-75
2022/05/26 02:22:58;;;;;;;2.10;1.90;;;;;;;;;;4191961;34;20241;-74
2022/05/26 02:25:25;;;;;;;5.47;1.83;;;;;;;;;;4182706;34;20102;-76
2022/05/26 02:27:53;;;;;;;2.87;2.22;;;;;;;;;;4191976;34;20472;-74
2022/05/26 02:30:23;;;;;;;3.47;2.40;;;;;;;;;;4192069;34;20117;-75
2022/05/26 02:32:51;;;;;;;4.22;2.33;;;;;;;;;;4203228;34;20176;-75
2022/05/26 02:35:29;;;;;;;3.08;2.00;;;;;;;;;;4201417;34;20097;-75
2022/05/26 02:38:17;;;;;;;2.75;2.10;;;;;;;;;;4189612;34;20118;-76
2022/05/26 02:40:44;;;;;;;3.15;1.87;;;;;;;;;;4190763;34;20117;-76
2022/05/26 02:43:19;;;;;;;3.40;2.03;;;;;;;;;;4189449;34;20222;-76
2022/05/26 02:46:00;;;;;;;2.33;2.00;;;;;;;;;;4189772;34;20116;-72
2022/05/26 02:48:39;;;;;;;5.40;2.30;;;;;;;;;;4177674;34;20757;-75
2022/05/26 02:51:31;;;;;;;2.87;2.00;;;;;;;;;;4189242;34;20629;-75
2022/05/26 02:54:09;;;;;;;1.85;1.75;;;;;;;;;;4188638;34;20274;-75
2022/05/26 02:56:46;;;;;;;2.10;1.90;;;;;;;;;;4190681;34;20130;-76
2022/05/26 02:59:20;;;;;;;5.28;1.75;;;;;;;;;;4189491;34;20121;-78
2022/05/26 03:01:55;;;;;;;1.90;1.80;;;;;;;;;;4189345;34;20538;-78
2022/05/26 03:04:24;;;;;;;2.67;1.63;;;;;;;;;;4178015;34;20105;-78
2022/05/26 03:06:58;;;;;;;3.25;1.95;;;;;;;;;;4188223;34;20204;-76
2022/05/26 03:09:24;;;;;;;4.37;2.10;;;;;;;;;;4177518;34;20103;-77
2022/05/26 03:11:53;;;;;;;1.95;1.80;;;;;;;;;;4190495;34;20124;-73
2022/05/26 03:14:20;;;;;;;1.87;1.62;;;;;;;;;;4165618;34;20117;-75
2022/05/26 03:16:46;;;;;;;4.50;1.87;;;;;;;;;;4177762;34;20479;-74
2022/05/26 03:19:13;;;;;;;3.90;1.62;;;;;;;;;;4189062;34;20102;-73
2022/05/26 03:21:40;;;;;;;5.20;2.00;;;;;;;;;;4177077;34;20110;-72
2022/05/26 03:24:08;;;;;;;5.37;1.80;;;;;;;;;;4188790;34;20462;-73
2022/05/26 03:26:34;;;;;;;2.12;1.80;;;;;;;;;;4188246;34;20117;-76
2022/05/26 03:29:00;;;;;;;3.90;2.15;;;;;;;;;;4189923;34;20118;-75
2022/05/26 03:31:26;;;;;;;6.75;1.90;;;;;;;;;;4177373;34;20222;-77
2022/05/26 03:42:10;;;;;;;4.82;2.08;;;;;;;;;;4202109;34;20201;-84
2022/05/26 03:44:36;;;;;;;4.37;2.03;;;;;;;;;;4165512;34;20134;-82
2022/05/26 03:47:03;;;;;;;5.22;1.90;;;;;;;;;;4180713;34;20391;-79
2022/05/26 03:49:29;;;;;;;5.22;2.47;;;;;;;;;;4173351;34;20116;-77
2022/05/26 03:51:57;;;;;;;3.90;2.20;;;;;;;;;;4187919;34;20114;-79
2022/05/26 03:54:24;;;;;;;6.43;1.80;;;;;;;;;;4189458;34;20121;-78
2022/05/26 03:56:50;;;;;;;4.30;1.87;;;;;;;;;;4180624;34;20129;-73
2022/05/26 03:59:16;;;;;;;6.62;2.20;;;;;;;;;;4185553;34;20192;-72
2022/05/26 04:01:42;;;;;;;3.72;2.20;;;;;;;;;;4188897;34;20118;-69
2022/05/26 04:04:08;;;;;;;5.25;1.95;;;;;;;;;;4187415;34;20658;-70
2022/05/26 04:06:34;;;;;;;4.55;2.58;;;;;;;;;;4188496;34;20118;-74
2022/05/26 04:09:00;;;;;;;2.00;1.60;;;;;;;;;;4182154;34;20625;-76
2022/05/26 04:11:26;;;;;;;2.85;1.87;;;;;;;;;;4187458;34;20110;-75
2022/05/26 04:13:53;;;;;;;3.45;1.73;;;;;;;;;;4188451;34;20476;-77
2022/05/26 04:16:20;;;;;;;2.45;1.95;;;;;;;;;;4175279;34;20102;-68
2022/05/26 04:18:46;;;;;;;5.37;2.30;;;;;;;;;;4188130;34;20110;-71
2022/05/26 04:21:13;;;;;;;4.07;1.80;;;;;;;;;;4187934;34;20153;-69
2022/05/26 04:23:39;;;;;;;2.67;1.85;;;;;;;;;;4188662;34;20119;-69
2022/05/26 04:26:07;;;;;;;5.57;1.95;;;;;;;;;;4191548;34;20129;-74
2022/05/26 04:28:33;;;;;;;5.78;2.20;;;;;;;;;;4179206;34;20137;-75
2022/05/26 04:30:59;;;;;;;4.93;2.03;;;;;;;;;;4190637;34;20106;-72
2022/05/26 04:33:25;;;;;;;4.00;1.50;;;;;;;;;;4191728;34;20129;-72
2022/05/26 04:35:52;;;;;;;3.53;1.80;;;;;;;;;;4192076;34;20194;-75
2022/05/26 04:38:19;;;;;;;4.30;1.70;;;;;;;;;;4190607;34;20318;-75
2022/05/26 04:40:45;;;;;;;2.87;1.70;;;;;;;;;;4191822;34;20101;-72
2022/05/26 04:43:12;;;;;;;8.07;2.08;;;;;;;;;;4190096;34;20524;-70
2022/05/26 04:45:38;;;;;;;3.40;1.58;;;;;;;;;;4178737;34;20121;-75
2022/05/26 04:48:04;;;;;;;1.92;1.65;;;;;;;;;;4190451;34;20105;-70
2022/05/26 04:50:30;;;;;;;7.10;2.03;;;;;;;;;;4192008;34;20211;-74
2022/05/26 04:52:56;;;;;;;4.62;1.55;;;;;;;;;;4190428;34;20110;-70
2022/05/26 04:55:22;;;;;;;2.87;1.85;;;;;;;;;;4191600;34;20114;-71
2022/05/26 04:57:52;;;;;;;4.65;2.50;;;;;;;;;;4190202;34;20105;-71
2022/05/26 05:00:18;;;;;;;8.27;1.80;;;;;;;;;;4191742;34;20555;-71
2022/05/26 05:02:44;;;;;;;2.37;1.40;;;;;;;;;;4191561;34;20133;-71
2022/05/26 05:05:11;;;;;;;1.70;1.50;;;;;;;;;;4190093;34;20205;-69
2022/05/26 05:07:37;;;;;;;1.40;1.30;;;;;;;;;;4190372;34;20114;-70
2022/05/26 05:10:04;;;;;;;6.53;2.08;;;;;;;;;;4191829;34;20226;-70
2022/05/26 05:12:30;;;;;;;1.87;1.45;;;;;;;;;;4191582;34;20099;-67
2022/05/26 05:14:56;;;;;;;1.50;1.40;;;;;;;;;;4191493;34;20448;-68
2022/05/26 05:17:25;;;;;;;2.45;1.48;;;;;;;;;;4191714;34;20121;-68
2022/05/26 05:19:51;;;;;;;2.12;1.75;;;;;;;;;;4189951;34;20126;-65
2022/05/26 05:22:26;;;;;;;1.83;1.60;;;;;;;;;;4190026;34;20470;-64
2022/05/26 05:24:57;;;;;;;2.90;1.60;;;;;;;;;;4190177;34;20213;-65
2022/05/26 05:27:31;;;;;;;1.55;1.45;;;;;;;;;;4191611;34;20634;-66
2022/05/26 05:30:01;;;;;;;1.58;1.35;;;;;;;;;;4191592;34;20120;-65
2022/05/26 05:32:50;;;;;;;10.48;1.95;;;;;;;;;;4191347;34;20450;-66
2022/05/26 05:35:21;;;;;;;1.48;1.37;;;;;;;;;;4191105;34;20127;-67
2022/05/26 05:37:47;;;;;;;4.37;1.48;;;;;;;;;;4189461;34;20109;-67
2022/05/26 05:40:13;;;;;;;1.30;1.20;;;;;;;;;;4191387;34;20098;-67
2022/05/26 05:42:41;;;;;;;3.15;1.40;;;;;;;;;;4190075;34;20114;-66
2022/05/26 05:45:08;;;;;;;2.37;1.50;;;;;;;;;;4191406;34;20102;-67
2022/05/26 05:47:34;;;;;;;2.95;1.70;;;;;;;;;;4191323;34;20137;-67
2022/05/26 05:50:00;;;;;;;2.90;1.45;;;;;;;;;;4191329;34;20569;-67
2022/05/26 05:52:26;;;;;;;1.90;1.70;;;;;;;;;;4189734;34;20113;-68
2022/05/26 05:54:55;;;;;;;1.58;1.48;;;;;;;;;;4189598;34;20136;-68
2022/05/26 05:57:21;;;;;;;1.70;1.60;;;;;;;;;;4191359;34;20125;-67
2022/05/26 05:59:47;;;;;;;1.60;1.50;;;;;;;;;;4189978;34;20122;-69
2022/05/26 06:02:13;;;;;;;1.60;1.50;;;;;;;;;;4191417;34;20150;-68
2022/05/26 06:04:42;;;;;;;2.67;2.10;;;;;;;;;;4191083;34;20114;-67
2022/05/26 06:07:19;;;;;;;2.12;1.70;;;;;;;;;;4190946;34;20242;-68
2022/05/26 06:09:46;;;;;;;2.28;1.50;;;;;;;;;;4191195;34;20117;-68
2022/05/26 06:12:13;;;;;;;5.93;1.70;;;;;;;;;;4191014;34;20202;-66
2022/05/26 06:14:40;;;;;;;2.90;1.70;;;;;;;;;;4178254;34;20118;-67
2022/05/26 06:17:09;;;;;;;2.05;1.70;;;;;;;;;;4191008;34;20114;-66
2022/05/26 06:19:36;;;;;;;3.55;1.90;;;;;;;;;;4190913;34;20482;-75
2022/05/26 06:22:07;;;;;;;3.53;1.87;;;;;;;;;;4191037;34;20105;-66
2022/05/26 06:24:33;;;;;;;5.05;1.65;;;;;;;;;;4189819;34;20122;-65
2022/05/26 06:27:00;;;;;;;4.78;1.80;;;;;;;;;;4190289;34;20130;-65
2022/05/26 06:37:39;;;;;;;5.03;1.77;;;;;;;;;;4190672;34;20102;-67
2022/05/26 06:40:06;;;;;;;1.83;1.70;;;;;;;;;;4199266;34;20157;-66
2022/05/26 06:42:32;;;;;;;4.53;1.62;;;;;;;;;;4203005;34;20124;-67
2022/05/26 06:44:59;;;;;;;1.83;1.50;;;;;;;;;;4204862;34;20113;-67
2022/05/26 06:47:26;;;;;;;2.03;1.58;;;;;;;;;;4202778;34;20549;-66
2022/05/26 06:49:52;;;;;;;1.70;1.60;;;;;;;;;;4190748;34;20754;-66
2022/05/26 06:52:25;;;;;;;1.98;1.60;;;;;;;;;;4190386;34;20201;-65
2022/05/26 06:54:51;;;;;;;2.37;1.80;;;;;;;;;;4190786;34;20113;-67
2022/05/26 06:57:18;;;;;;;6.55;1.83;;;;;;;;;;4190514;34;20192;-65
2022/05/26 06:59:44;;;;;;;3.42;1.58;;;;;;;;;;4189561;34;20085;-66
2022/05/26 07:02:11;;;;;;;2.58;1.60;;;;;;;;;;4190672;34;20208;-67
2022/05/26 07:04:40;;;;;;;3.25;1.70;;;;;;;;;;4193201;34;20109;-68
2022/05/26 07:07:06;;;;;;;1.70;1.60;;;;;;;;;;4202772;34;20190;-68
2022/05/26 07:09:33;;;;;;;1.35;1.30;;;;;;;;;;4202918;34;20538;-68
2022/05/26 07:11:59;;;;;;;3.15;1.60;;;;;;;;;;4204614;34;20141;-66
2022/05/26 07:14:25;;;;;;;2.83;1.70;;;;;;;;;;4203023;34;20127;-64
2022/05/26 07:16:52;;;;;;;1.90;1.80;;;;;;;;;;4204154;34;20106;-66
2022/05/26 07:19:18;;;;;;;3.55;1.67;;;;;;;;;;4204374;34;20101;-65
2022/05/26 07:21:49;;;;;;;1.85;1.58;;;;;;;;;;4204149;34;20185;-65
2022/05/26 07:24:21;;;;;;;2.53;1.62;;;;;;;;;;4191708;34;20104;-65
2022/05/26 07:26:47;;;;;;;3.58;1.70;;;;;;;;;;4202693;34;20542;-66
2022/05/26 07:29:15;;;;;;;4.72;1.60;;;;;;;;;;4204475;34;20116;-66
2022/05/26 07:31:41;;;;;;;1.80;1.60;;;;;;;;;;4201681;34;20105;-66
2022/05/26 07:34:07;;;;;;;4.35;1.37;;;;;;;;;;4177633;34;20134;-67
2022/05/26 07:42:06;;;;;;;3.78;1.98;;;;;;;;;;4190133;34;20116;-67
2022/05/26 07:44:37;;;;;;;1.52;1.15;;;;;;;;;;4188985;34;20129;-66
2022/05/26 07:47:04;;;;;;;1.35;1.25;;;;;;;;;;4190280;34;20103;-66
2022/05/26 07:49:33;;;;;;;1.10;1.10;;;;;;;;;;4188740;34;20137;-66
2022/05/26 07:52:01;;;;;;;1.85;1.05;;;;;;;;;;4190318;34;20103;-66
2022/05/26 07:54:28;;;;;;;1.45;1.35;;;;;;;;;;4190115;34;20138;-68
2022/05/26 07:56:55;;;;;;;1.35;1.25;;;;;;;;;;4189978;34;20105;-66
2022/05/26 07:59:22;;;;;;;1.70;1.60;;;;;;;;;;4188742;34;20185;-66
2022/05/26 08:01:48;;;;;;;5.22;1.50;;;;;;;;;;4191985;34;20546;-66
2022/05/26 08:04:15;;;;;;;1.40;1.15;;;;;;;;;;4192168;34;20717;-66
2022/05/26 08:06:45;;;;;;;1.30;1.20;;;;;;;;;;4198038;34;20503;-64
2022/05/26 08:09:17;;;;;;;1.10;1.10;;;;;;;;;;4204552;34;20099;-67
2022/05/26 08:11:43;;;;;;;1.02;1.00;;;;;;;;;;4204751;34;20117;-67
2022/05/26 08:14:09;;;;;;;0.90;0.90;;;;;;;;;;4205978;34;20109;-67
2022/05/26 08:16:36;;;;;;;2.35;1.55;;;;;;;;;;4206061;34;20094;-72
2022/05/26 08:19:03;;;;;;;1.40;1.20;;;;;;;;;;4205716;34;20476;-66
2022/05/26 08:21:30;;;;;;;1.10;1.10;;;;;;;;;;4204323;34;20085;-66
2022/05/26 08:23:56;;;;;;;1.42;1.10;;;;;;;;;;4204470;34;20129;-67
2022/05/26 08:26:25;;;;;;;3.42;1.80;;;;;;;;;;4204162;34;20115;-67
2022/05/26 08:28:51;;;;;;;1.00;1.00;;;;;;;;;;4192796;34;20145;-67
2022/05/26 08:31:17;;;;;;;1.00;1.00;;;;;;;;;;4204419;34;20516;-68
2022/05/26 08:33:43;;;;;;;1.55;1.20;;;;;;;;;;4196527;34;20110;-67
2022/05/26 08:36:12;;;;;;;1.05;1.05;;;;;;;;;;4191744;34;20102;-66
2022/05/26 08:38:39;;;;;;;5.45;1.67;;;;;;;;;;4191927;34;20222;-67
2022/05/26 08:41:06;;;;;;;1.10;1.10;;;;;;;;;;4190536;34;20145;-66
2022/05/26 08:43:48;;;;;;;1.92;1.40;;;;;;;;;;4190531;34;20094;-67
2022/05/26 08:46:17;;;;;;;1.48;1.37;;;;;;;;;;4191765;34;20124;-67
2022/05/26 08:48:58;;;;;;;1.08;1.08;;;;;;;;;;4191855;34;20102;-67
2022/05/26 08:51:29;;;;;;;2.12;1.35;;;;;;;;;;4190927;34;20106;-66
2022/05/26 08:53:56;;;;;;;5.50;1.33;;;;;;;;;;4190735;34;20493;-67
2022/05/26 08:56:25;;;;;;;1.00;1.00;;;;;;;;;;4191879;34;20277;-66
2022/05/26 08:58:57;;;;;;;3.00;1.60;;;;;;;;;;4191859;34;20125;-66
2022/05/26 09:01:28;;;;;;;0.80;0.80;;;;;;;;;;4191538;34;20202;-67
2022/05/26 09:03:54;;;;;;;1.12;1.05;;;;;;;;;;4191498;34;20110;-67
2022/05/26 09:06:23;;;;;;;1.05;1.05;;;;;;;;;;4191418;34;20125;-65
2022/05/26 09:14:41;;;;;;;5.12;1.42;;;;;;;;;;4191409;34;20109;-66
2022/05/26 09:17:12;;;;;;;1.00;1.00;;;;;;;;;;4188780;34;20202;-67
2022/05/26 09:19:43;;;;;;;2.17;1.73;;;;;;;;;;4190961;34;20098;-65
2022/05/26 09:22:44;;;;;;;1.05;1.05;;;;;;;;;;4189988;34;20450;-68
2022/05/26 09:25:14;;;;;;;8.77;2.10;;;;;;;;;;4175650;34;20676;-66
2022/05/26 09:27:50;;;;;;;1.12;1.10;;;;;;;;;;4189820;34;20465;-66
2022/05/26 09:30:23;;;;;;;1.65;1.20;;;;;;;;;;4191572;34;20104;-66
2022/05/26 09:32:50;;;;;;;1.52;1.40;;;;;;;;;;4191343;34;20124;-66
2022/05/26 09:35:18;;;;;;;6.60;1.67;;;;;;;;;;4191433;34;20230;-67
2022/05/26 09:37:50;;;;;;;3.75;1.48;;;;;;;;;;4191460;34;20090;-66
2022/05/26 09:40:28;;;;;;;1.60;1.40;;;;;;;;;;4191402;34;20577;-67
2022/05/26 09:43:17;;;;;;;2.72;1.08;;;;;;;;;;4191258;34;20124;-66
2022/05/26 09:46:08;;;;;;;0.88;0.88;;;;;;;;;;4185742;34;20121;-66
2022/05/26 09:48:36;;;;;;;1.00;1.00;;;;;;;;;;4189919;34;20129;-67
2022/05/26 09:51:02;;;;;;;2.87;1.45;;;;;;;;;;4178422;34;20120;-66
2022/05/26 09:53:40;;;;;;;1.33;1.20;;;;;;;;;;4191271;34;20130;-67
2022/05/26 09:56:07;;;;;;;2.00;1.60;;;;;;;;;;4191202;34;20232;-66
2022/05/26 09:58:42;;;;;;;0.80;0.80;;;;;;;;;;4191143;34;20569;-66
2022/05/26 10:01:26;;;;;;;2.30;1.10;;;;;;;;;;4191168;34;20185;-65
2022/05/26 10:04:24;;;;;;;1.48;1.33;;;;;;;;;;4191273;34;20124;-67
2022/05/26 10:07:07;;;;;;;5.30;1.70;;;;;;;;;;4191137;34;20177;-65
2022/05/26 10:09:59;;;;;;;1.33;1.23;;;;;;;;;;4191298;34;20102;-67
2022/05/26 10:12:51;;;;;;;1.15;1.15;;;;;;;;;;4189248;34;20565;-66
2022/05/26 10:15:27;;;;;;;6.57;1.50;;;;;;;;;;4203307;34;20128;-67
2022/05/26 10:18:30;;;;;;;1.00;1.00;;;;;;;;;;4199860;34;20110;-66
2022/05/26 10:21:10;;;;;;;1.83;1.30;;;;;;;;;;4189504;34;20202;-66
2022/05/26 10:24:06;;;;;;;1.40;1.30;;;;;;;;;;4190145;34;20209;-66
2022/05/26 10:26:46;;;;;;;2.10;1.17;;;;;;;;;;4190509;34;20110;-65
2022/05/26 10:29:16;;;;;;;6.78;1.50;;;;;;;;;;4188957;34;20129;-65
2022/05/26 10:32:20;;;;;;;1.92;1.25;;;;;;;;;;4189284;34;20213;-65
2022/05/26 10:35:10;;;;;;;1.00;1.00;;;;;;;;;;4189169;34;20105;-65
2022/05/26 10:37:51;;;;;;;1.12;1.12;;;;;;;;;;4189138;34;20504;-64
2022/05/26 10:40:46;;;;;;;0.90;0.90;;;;;;;;;;4191028;34;20097;-64
2022/05/26 10:43:41;;;;;;;0.93;0.93;;;;;;;;;;4189957;34;20128;-65
2022/05/26 10:46:09;;;;;;;6.07;1.60;;;;;;;;;;4189334;34;20129;-63
2022/05/26 10:49:02;;;;;;;1.00;1.00;;;;;;;;;;4190800;34;20116;-64
2022/05/26 10:51:42;;;;;;;1.10;1.10;;;;;;;;;;4190613;34;20126;-66
2022/05/26 10:54:08;;;;;;;0.80;0.80;;;;;;;;;;4189413;34;20106;-66
2022/05/26 10:56:50;;;;;;;1.50;1.40;;;;;;;;;;4190872;34;20120;-66
2022/05/26 10:59:19;;;;;;;2.47;1.10;;;;;;;;;;4191011;34;20106;-65
2022/05/26 11:01:53;;;;;;;1.35;1.27;;;;;;;;;;4189260;34;20566;-65
2022/05/26 11:04:53;;;;;;;1.50;1.40;;;;;;;;;;4190818;34;20145;-64
2022/05/26 11:07:32;;;;;;;2.15;1.25;;;;;;;;;;4190575;34;20541;-66
2022/05/26 11:10:41;;;;;;;1.30;1.20;;;;;;;;;;4188741;34;20114;-67
2022/05/26 11:13:34;;;;;;;1.60;1.42;;;;;;;;;;4190232;34;20094;-65
2022/05/26 11:19:24;;;;;;;1.87;1.27;;;;;;;;;;4190504;34;20130;-64
2022/05/26 11:21:51;;;;;;;1.85;1.40;;;;;;;;;;4185390;34;20142;-64
2022/05/26 11:24:17;;;;;;;2.45;1.30;;;;;;;;;;4190381;34;20485;-64
2022/05/26 11:27:07;;;;;;;1.42;1.33;;;;;;;;;;4190224;34;20136;-65
2022/05/26 11:29:45;;;;;;;3.78;1.52;;;;;;;;;;4188996;34;20118;-67
2022/05/26 11:38:16;;;;;;;1.50;1.40;;;;;;;;;;4178606;34;20124;-67
2022/05/26 11:41:01;;;;;;;10.52;1.77;;;;;;;;;;4178609;34;20519;-66
2022/05/26 11:43:35;;;;;;;2.10;1.35;;;;;;;;;;4177455;34;20153;-65
2022/05/26 11:46:00;;;;;;;2.62;1.70;;;;;;;;;;4177378;34;20152;-64
2022/05/26 11:48:33;;;;;;;4.97;1.85;;;;;;;;;;4177348;34;20526;-63
2022/05/26 11:51:20;;;;;;;3.08;1.60;;;;;;;;;;4178749;34;20130;-62
2022/05/26 11:53:47;;;;;;;7.95;1.60;;;;;;;;;;4178712;34;20115;-71
2022/05/26 11:56:25;;;;;;;4.43;1.80;;;;;;;;;;4165704;34;20210;-67
2022/05/26 11:59:20;;;;;;;11.52;3.10;;;;;;;;;;4177647;34;20133;-64
2022/05/26 12:01:58;;;;;;;4.75;3.80;;;;;;;;;;4176814;34;20114;-68
2022/05/26 12:04:28;;;;;;;3.95;2.10;;;;;;;;;;4177050;34;20144;-68
2022/05/26 12:07:01;;;;;;;9.77;1.70;;;;;;;;;;4178348;34;20218;-65
2022/05/26 12:09:33;;;;;;;1.62;1.52;;;;;;;;;;4176698;34;20122;-71
2022/05/26 12:12:07;;;;;;;6.00;1.92;;;;;;;;;;4175810;34;20109;-68
2022/05/26 12:14:34;;;;;;;4.82;1.87;;;;;;;;;;4178477;34;20094;-70
2022/05/26 12:17:34;;;;;;;6.07;2.00;;;;;;;;;;4178189;34;20558;-70
2022/05/26 12:20:03;;;;;;;1.85;1.33;;;;;;;;;;4178300;34;20138;-64
2022/05/26 12:22:37;;;;;;;4.93;1.70;;;;;;;;;;4177018;34;20157;-68
2022/05/26 12:25:08;;;;;;;5.45;1.83;;;;;;;;;;4178355;34;20470;-71
2022/05/26 12:27:55;;;;;;;1.42;1.33;;;;;;;;;;4176941;34;20128;-67
2022/05/26 12:30:41;;;;;;;2.60;1.60;;;;;;;;;;4178616;34;20141;-67
2022/05/26 12:33:19;;;;;;;1.95;1.40;;;;;;;;;;4182178;34;20132;-67
2022/05/26 12:35:54;;;;;;;1.67;1.58;;;;;;;;;;4192021;34;20132;-66
2022/05/26 12:38:49;;;;;;;3.70;1.60;;;;;;;;;;4191857;34;20526;-66
2022/05/26 12:41:30;;;;;;;5.05;2.80;;;;;;;;;;4192103;34;20458;-70
2022/05/26 12:44:15;;;;;;;4.93;3.67;;;;;;;;;;4190480;34;20523;-73
2022/05/26 12:47:05;;;;;;;2.42;1.40;;;;;;;;;;4191682;34;20205;-71
2022/05/26 12:49:56;;;;;;;3.33;1.65;;;;;;;;;;4190398;34;20467;-67
2022/05/26 12:52:38;;;;;;;4.05;1.50;;;;;;;;;;4179993;34;20110;-67
2022/05/26 12:55:27;;;;;;;1.50;1.40;;;;;;;;;;4198935;34;20126;-65
2022/05/26 12:58:01;;;;;;;3.03;1.42;;;;;;;;;;4191332;34;20451;-67
2022/05/26 13:00:56;;;;;;;4.37;1.62;;;;;;;;;;4191278;34;20467;-67
2022/05/26 13:03:47;;;;;;;11.70;1.98;;;;;;;;;;4191142;34;20502;-67
2022/05/26 13:06:22;;;;;;;3.17;1.90;;;;;;;;;;4190015;34;20454;-67
2022/05/26 13:08:49;;;;;;;;;;;;;;;;;;4190345;34;20101;-68
2022/05/26 13:11:22;;;;;;;3.55;1.50;;;;;;;;;;4178710;34;20354;-67
2022/05/26 13:13:53;;;;;;;12.50;6.07;;;;;;;;;;4191353;34;20140;-67
2022/05/26 13:16:26;;;;;;;27.92;11.45;;;;;;;;;;4189779;34;20129;-69
2022/05/26 13:18:53;;;;;;;19.55;9.25;;;;;;;;;;4191270;34;20175;-67
2022/05/26 13:21:24;;;;;;;10.55;6.10;;;;;;;;;;4189800;34;20094;-67
2022/05/26 13:23:51;;;;;;;6.45;4.35;;;;;;;;;;4191192;34;20157;-67
2022/05/26 13:26:19;;;;;;;3.70;1.55;;;;;;;;;;4178294;34;20125;-70
2022/05/26 13:28:54;;;;;;;7.20;3.30;;;;;;;;;;4200607;34;20125;-67
2022/05/26 13:34:07;;;;;;;4.90;1.50;;;;;;;;;;4190698;34;20530;-67
2022/05/26 13:36:40;;;;;;;2.55;2.12;;;;;;;;;;4178597;34;20102;-66
2022/05/26 13:39:15;;;;;;;3.75;2.25;;;;;;;;;;4191885;34;20217;-68
2022/05/26 13:41:43;;;;;;;3.93;2.10;;;;;;;;;;4191080;34;20116;-69
2022/05/26 13:44:13;;;;;;;7.22;2.20;;;;;;;;;;4189567;34;20538;-75
2022/05/26 13:46:43;;;;;;;4.40;3.30;;;;;;;;;;4191010;34;20739;-70
2022/05/26 13:49:36;;;;;;;4.43;2.85;;;;;;;;;;4189569;34;20180;-67
2022/05/26 13:52:21;;;;;;;2.92;1.62;;;;;;;;;;4189767;34;20106;-67
2022/05/26 13:54:53;;;;;;;3.53;1.60;;;;;;;;;;4188861;34;20099;-66
2022/05/26 13:57:39;;;;;;;3.42;2.00;;;;;;;;;;4190142;34;20117;-68
2022/05/26 14:00:07;;;;;;;2.15;1.87;;;;;;;;;;4190949;34;20199;-68
2022/05/26 14:02:35;;;;;;;3.22;1.87;;;;;;;;;;4189005;34;20110;-69
2022/05/26 14:05:13;;;;;;;2.42;1.80;;;;;;;;;;4190698;34;20122;-67
2022/05/26 14:07:42;;;;;;;3.47;2.03;;;;;;;;;;4190832;34;20198;-68
2022/05/26 14:10:23;;;;;;;4.65;2.00;;;;;;;;;;4191036;34;20112;-67
2022/05/26 14:13:04;;;;;;;2.15;1.90;;;;;;;;;;4188992;34;20118;-69
2022/05/26 14:15:50;;;;;;;2.35;1.67;;;;;;;;;;4189453;34;20137;-68
2022/05/26 14:18:31;;;;;;;1.95;1.75;;;;;;;;;;4190458;34;20209;-67
2022/05/26 14:21:08;;;;;;;7.80;3.47;;;;;;;;;;4190649;34;20494;-67
2022/05/26 14:23:35;;;;;;;2.40;1.67;;;;;;;;;;4190649;34;20218;-67
2022/05/26 14:26:19;;;;;;;4.80;2.17;;;;;;;;;;4189138;34;20547;-67
2022/05/26 14:28:46;;;;;;;2.00;1.85;;;;;;;;;;4190241;34;20206;-67
2022/05/26 14:31:18;;;;;;;1.40;1.30;;;;;;;;;;4188976;34;20125;-69
2022/05/26 14:34:15;;;;;;;2.37;1.42;;;;;;;;;;4188952;34;20114;-66
2022/05/26 14:36:41;;;;;;;1.85;1.20;;;;;;;;;;4175204;34;20110;-68
2022/05/26 14:39:07;;;;;;;1.98;1.73;;;;;;;;;;4190579;34;20209;-77
2022/05/26 14:41:33;;;;;;;3.97;1.80;;;;;;;;;;4188805;34;20454;-68
2022/05/26 14:44:04;;;;;;;1.98;1.80;;;;;;;;;;4188420;34;20101;-67
2022/05/26 14:46:31;;;;;;;1.48;1.37;;;;;;;;;;4188940;34;20122;-68
2022/05/26 14:48:59;;;;;;;1.55;1.45;;;;;;;;;;4190069;34;20105;-67
2022/05/26 14:51:30;;;;;;;2.42;1.37;;;;;;;;;;4190317;34;20089;-68
2022/05/26 14:56:45;;;;;;;1.95;1.60;;;;;;;;;;4203039;34;20102;-68
2022/05/26 14:59:12;;;;;;;2.20;1.87;;;;;;;;;;4204164;34;20180;-71
2022/05/26 15:01:38;;;;;;;1.15;1.12;;;;;;;;;;4204474;34;20517;-70
2022/05/26 15:04:04;;;;;;;8.38;2.10;;;;;;;;;;4204274;34;20190;-68
2022/05/26 15:06:39;;;;;;;2.83;1.17;;;;;;;;;;4204437;34;20134;-68
2022/05/26 15:09:11;;;;;;;5.18;2.65;;;;;;;;;;4204203;34;20497;-68
2022/05/26 15:11:38;;;;;;;3.08;2.15;;;;;;;;;;4203074;34;20112;-68
2022/05/26 15:14:04;;;;;;;2.20;1.98;;;;;;;;;;4214146;34;20141;-67
2022/05/26 15:16:30;;;;;;;2.87;1.52;;;;;;;;;;4204475;34;20117;-68
2022/05/26 15:18:57;;;;;;;1.55;1.45;;;;;;;;;;4204116;34;20093;-67
2022/05/26 15:21:23;;;;;;;3.58;2.05;;;;;;;;;;4204321;34;20114;-68
2022/05/26 15:23:49;;;;;;;2.35;1.77;;;;;;;;;;4203531;34;20545;-71
2022/05/26 15:26:15;;;;;;;2.70;2.10;;;;;;;;;;4202892;34;20519;-67
2022/05/26 15:28:50;;;;;;;3.12;1.80;;;;;;;;;;4203874;34;20502;-67
2022/05/26 15:31:16;;;;;;;3.70;2.37;;;;;;;;;;4204239;34;20101;-68
2022/05/26 15:33:43;;;;;;;2.12;1.92;;;;;;;;;;4203853;34;20481;-68
2022/05/26 15:36:10;;;;;;;4.15;2.85;;;;;;;;;;4202970;34;20148;-67
2022/05/26 15:38:42;;;;;;;6.30;2.72;;;;;;;;;;4202487;34;20181;-68
2022/05/26 15:41:08;;;;;;;11.20;3.40;;;;;;;;;;4202990;34;20117;-68
2022/05/26 15:43:35;;;;;;;5.25;2.30;;;;;;;;;;4202412;34;20098;-67
2022/05/26 15:46:02;;;;;;;7.05;1.87;;;;;;;;;;4203809;34;20113;-66
2022/05/26 15:48:28;;;;;;;2.25;1.98;;;;;;;;;;4203764;34;20114;-68
2022/05/26 15:50:55;;;;;;;4.28;1.87;;;;;;;;;;4202797;34;20203;-68
2022/05/26 15:53:21;;;;;;;9.52;2.67;;;;;;;;;;4182563;34;20094;-69
2022/05/26 15:55:48;;;;;;;7.22;3.75;;;;;;;;;;4165769;34;20613;-69
2022/05/26 15:58:19;;;;;;;4.30;2.62;;;;;;;;;;4189745;34;20116;-68
2022/05/26 16:00:46;;;;;;;4.07;2.00;;;;;;;;;;4188166;34;20097;-68
2022/05/26 16:03:14;;;;;;;6.43;1.70;;;;;;;;;;4189234;34;20091;-67
2022/05/26 16:05:40;;;;;;;7.05;1.98;;;;;;;;;;4189466;34;20089;-67
2022/05/26 16:08:06;;;;;;;3.35;1.90;;;;;;;;;;4187312;34;21421;-69
2022/05/26 16:10:33;;;;;;;6.32;2.03;;;;;;;;;;4195550;34;20109;-69
2022/05/26 16:12:59;;;;;;;5.37;2.55;;;;;;;;;;4195990;34;20117;-67
2022/05/26 16:15:26;;;;;;;3.87;1.67;;;;;;;;;;4189893;34;20121;-68
2022/05/26 16:17:52;;;;;;;9.70;2.78;;;;;;;;;;4197524;34;20134;-68
2022/05/26 16:20:19;;;;;;;7.80;2.20;;;;;;;;;;4202705;34;20229;-67
2022/05/26 16:22:46;;;;;;;2.55;1.80;;;;;;;;;;4205758;34;20112;-66
2022/05/26 16:25:13;;;;;;;4.57;2.20;;;;;;;;;;4202795;34;20133;-67
2022/05/26 16:27:39;;;;;;;6.22;2.33;;;;;;;;;;4190201;34;21094;-68